sensor_id;sensor_type;location;lat;lon;timestamp;P1;durP1;ratioP1;P2;durP2;ratioP2
64795;SDS011;51229;51.980;6.722;2022-12-20T00:02:09;6.70;;;3.80;;
64795;SDS011;51229;51.980;6.722;2022-12-20T00:04:34;6.40;;;4.18;;
64795;SDS011;51229;51.980;6.722;2022-12-20T00:07:00;6.53;;;3.67;;
64795;SDS011;51229;51.980;6.722;2022-12-20T00:09:26;5.55;;;3.47;;
64795;SDS011;51229;51.980;6.722;2022-12-20T00:11:52;5.88;;;3.58;;
64795;SDS011;51229;51.980;6.722;2022-12-20T00:14:18;6.32;;;3.42;;
64795;SDS011;51229;51.980;6.722;2022-12-20T00:16:44;6.97;;;3.47;;
64795;SDS011;51229;51.980;6.722;2022-12-20T00:19:10;6.10;;;3.55;;
64795;SDS011;51229;51.980;6.722;2022-12-20T00:21:36;5.78;;;3.25;;
64795;SDS011;51229;51.980;6.722;2022-12-20T00:24:03;5.55;;;3.22;;
64795;SDS011;51229;51.980;6.722;2022-12-20T00:26:30;6.30;;;3.30;;
64795;SDS011;51229;51.980;6.722;2022-12-20T00:28:57;7.95;;;3.40;;
64795;SDS011;51229;51.980;6.722;2022-12-20T00:31:25;4.82;;;2.83;;
64795;SDS011;51229;51.980;6.722;2022-12-20T00:33:53;4.88;;;2.80;;
64795;SDS011;51229;51.980;6.722;2022-12-20T00:36:21;6.65;;;3.30;;
64795;SDS011;51229;51.980;6.722;2022-12-20T00:38:48;6.90;;;3.17;;
64795;SDS011;51229;51.980;6.722;2022-12-20T00:41:20;5.10;;;2.90;;
64795;SDS011;51229;51.980;6.722;2022-12-20T00:46:15;5.68;;;3.08;;
64795;SDS011;51229;51.980;6.722;2022-12-20T00:48:42;7.95;;;3.15;;
64795;SDS011;51229;51.980;6.722;2022-12-20T00:51:10;6.32;;;2.83;;
64795;SDS011;51229;51.980;6.722;2022-12-20T00:53:38;6.07;;;2.95;;
64795;SDS011;51229;51.980;6.722;2022-12-20T00:56:04;5.55;;;3.08;;
64795;SDS011;51229;51.980;6.722;2022-12-20T00:58:32;6.43;;;3.53;;
64795;SDS011;51229;51.980;6.722;2022-12-20T01:00:58;4.65;;;2.42;;
64795;SDS011;51229;51.980;6.722;2022-12-20T01:03:25;5.13;;;3.05;;
64795;SDS011;51229;51.980;6.722;2022-12-20T01:05:52;5.25;;;2.90;;
64795;SDS011;51229;51.980;6.722;2022-12-20T01:08:22;4.60;;;2.40;;
64795;SDS011;51229;51.980;6.722;2022-12-20T01:10:59;5.32;;;2.65;;
64795;SDS011;51229;51.980;6.722;2022-12-20T01:13:31;7.18;;;3.30;;
64795;SDS011;51229;51.980;6.722;2022-12-20T01:16:08;6.65;;;3.42;;
64795;SDS011;51229;51.980;6.722;2022-12-20T01:18:36;6.38;;;3.05;;
64795;SDS011;51229;51.980;6.722;2022-12-20T01:21:06;7.00;;;2.83;;
64795;SDS011;51229;51.980;6.722;2022-12-20T01:23:34;5.05;;;3.00;;
64795;SDS011;51229;51.980;6.722;2022-12-20T01:26:01;4.55;;;2.80;;
64795;SDS011;51229;51.980;6.722;2022-12-20T01:28:29;5.63;;;2.97;;
64795;SDS011;51229;51.980;6.722;2022-12-20T01:30:55;5.45;;;2.85;;
64795;SDS011;51229;51.980;6.722;2022-12-20T01:33:21;5.35;;;3.10;;
64795;SDS011;51229;51.980;6.722;2022-12-20T01:35:53;4.07;;;2.53;;
64795;SDS011;51229;51.980;6.722;2022-12-20T01:38:23;4.50;;;2.83;;
64795;SDS011;51229;51.980;6.722;2022-12-20T01:40:49;5.18;;;2.78;;
64795;SDS011;51229;51.980;6.722;2022-12-20T01:43:15;5.03;;;2.90;;
64795;SDS011;51229;51.980;6.722;2022-12-20T01:45:43;5.90;;;2.75;;
64795;SDS011;51229;51.980;6.722;2022-12-20T01:48:08;5.70;;;2.75;;
64795;SDS011;51229;51.980;6.722;2022-12-20T01:50:36;6.10;;;2.63;;
64795;SDS011;51229;51.980;6.722;2022-12-20T01:53:03;5.68;;;2.83;;
64795;SDS011;51229;51.980;6.722;2022-12-20T01:55:29;5.32;;;3.10;;
64795;SDS011;51229;51.980;6.722;2022-12-20T01:57:58;5.25;;;2.60;;
64795;SDS011;51229;51.980;6.722;2022-12-20T02:00:30;4.85;;;2.50;;
64795;SDS011;51229;51.980;6.722;2022-12-20T02:02:59;5.35;;;2.38;;
64795;SDS011;51229;51.980;6.722;2022-12-20T02:05:35;6.35;;;2.42;;
64795;SDS011;51229;51.980;6.722;2022-12-20T02:08:03;5.20;;;2.55;;
64795;SDS011;51229;51.980;6.722;2022-12-20T02:13:28;4.43;;;2.60;;
64795;SDS011;51229;51.980;6.722;2022-12-20T02:16:05;5.13;;;2.50;;
64795;SDS011;51229;51.980;6.722;2022-12-20T02:18:33;5.13;;;2.53;;
64795;SDS011;51229;51.980;6.722;2022-12-20T02:21:23;4.40;;;2.45;;
64795;SDS011;51229;51.980;6.722;2022-12-20T02:35:22;5.22;;;2.63;;
64795;SDS011;51229;51.980;6.722;2022-12-20T02:37:55;4.73;;;2.77;;
64795;SDS011;51229;51.980;6.722;2022-12-20T02:40:24;4.82;;;2.50;;
64795;SDS011;51229;51.980;6.722;2022-12-20T02:42:55;4.90;;;2.53;;
64795;SDS011;51229;51.980;6.722;2022-12-20T02:45:31;5.13;;;2.83;;
64795;SDS011;51229;51.980;6.722;2022-12-20T02:48:02;5.95;;;3.22;;
64795;SDS011;51229;51.980;6.722;2022-12-20T02:51:07;6.32;;;2.88;;
64795;SDS011;51229;51.980;6.722;2022-12-20T02:53:27;7.05;;;3.40;;
64795;SDS011;51229;51.980;6.722;2022-12-20T02:56:13;6.00;;;3.25;;
64795;SDS011;51229;51.980;6.722;2022-12-20T02:58:48;5.50;;;2.95;;
64795;SDS011;51229;51.980;6.722;2022-12-20T03:01:25;6.15;;;2.88;;
64795;SDS011;51229;51.980;6.722;2022-12-20T03:03:56;9.10;;;3.75;;
64795;SDS011;51229;51.980;6.722;2022-12-20T03:06:23;4.93;;;2.85;;
64795;SDS011;51229;51.980;6.722;2022-12-20T03:08:49;7.85;;;3.45;;
64795;SDS011;51229;51.980;6.722;2022-12-20T03:11:15;7.07;;;3.70;;
64795;SDS011;51229;51.980;6.722;2022-12-20T03:13:40;5.93;;;3.15;;
64795;SDS011;51229;51.980;6.722;2022-12-20T03:16:07;7.25;;;3.70;;
64795;SDS011;51229;51.980;6.722;2022-12-20T03:18:35;9.15;;;3.70;;
64795;SDS011;51229;51.980;6.722;2022-12-20T03:21:01;6.60;;;3.90;;
64795;SDS011;51229;51.980;6.722;2022-12-20T03:23:27;7.13;;;3.72;;
64795;SDS011;51229;51.980;6.722;2022-12-20T03:25:52;8.90;;;4.15;;
64795;SDS011;51229;51.980;6.722;2022-12-20T03:28:31;6.57;;;4.25;;
64795;SDS011;51229;51.980;6.722;2022-12-20T03:30:56;6.20;;;3.70;;
64795;SDS011;51229;51.980;6.722;2022-12-20T03:33:22;7.00;;;3.80;;
64795;SDS011;51229;51.980;6.722;2022-12-20T03:35:49;6.55;;;3.58;;
64795;SDS011;51229;51.980;6.722;2022-12-20T03:38:16;6.53;;;3.67;;
64795;SDS011;51229;51.980;6.722;2022-12-20T03:40:42;7.40;;;4.07;;
64795;SDS011;51229;51.980;6.722;2022-12-20T03:43:10;7.03;;;4.05;;
64795;SDS011;51229;51.980;6.722;2022-12-20T03:45:36;11.15;;;3.80;;
64795;SDS011;51229;51.980;6.722;2022-12-20T03:48:02;6.88;;;3.90;;
64795;SDS011;51229;51.980;6.722;2022-12-20T03:50:30;8.85;;;4.35;;
64795;SDS011;51229;51.980;6.722;2022-12-20T03:52:55;7.53;;;4.22;;
64795;SDS011;51229;51.980;6.722;2022-12-20T03:55:21;8.05;;;4.65;;
64795;SDS011;51229;51.980;6.722;2022-12-20T03:57:48;9.68;;;4.15;;
64795;SDS011;51229;51.980;6.722;2022-12-20T04:00:23;8.80;;;4.40;;
64795;SDS011;51229;51.980;6.722;2022-12-20T04:02:55;8.20;;;4.32;;
64795;SDS011;51229;51.980;6.722;2022-12-20T04:05:21;6.90;;;4.03;;
64795;SDS011;51229;51.980;6.722;2022-12-20T04:07:47;6.97;;;3.80;;
64795;SDS011;51229;51.980;6.722;2022-12-20T04:10:13;7.97;;;4.28;;
64795;SDS011;51229;51.980;6.722;2022-12-20T04:12:40;7.03;;;4.07;;
64795;SDS011;51229;51.980;6.722;2022-12-20T04:15:08;8.23;;;4.68;;
64795;SDS011;51229;51.980;6.722;2022-12-20T04:17:37;7.38;;;4.72;;
64795;SDS011;51229;51.980;6.722;2022-12-20T04:20:02;7.82;;;4.00;;
64795;SDS011;51229;51.980;6.722;2022-12-20T04:22:48;10.27;;;4.35;;
64795;SDS011;51229;51.980;6.722;2022-12-20T04:25:16;9.32;;;5.05;;
64795;SDS011;51229;51.980;6.722;2022-12-20T04:27:44;8.18;;;3.88;;
64795;SDS011;51229;51.980;6.722;2022-12-20T04:30:10;8.35;;;4.55;;
64795;SDS011;51229;51.980;6.722;2022-12-20T04:32:36;7.88;;;4.05;;
64795;SDS011;51229;51.980;6.722;2022-12-20T04:35:03;9.05;;;4.22;;
64795;SDS011;51229;51.980;6.722;2022-12-20T04:37:35;9.45;;;4.38;;
64795;SDS011;51229;51.980;6.722;2022-12-20T04:40:00;6.82;;;3.88;;
64795;SDS011;51229;51.980;6.722;2022-12-20T04:42:58;5.70;;;3.50;;
64795;SDS011;51229;51.980;6.722;2022-12-20T04:45:24;6.18;;;3.80;;
64795;SDS011;51229;51.980;6.722;2022-12-20T04:47:51;7.40;;;4.30;;
64795;SDS011;51229;51.980;6.722;2022-12-20T04:50:23;5.70;;;3.40;;
64795;SDS011;51229;51.980;6.722;2022-12-20T04:52:49;6.55;;;3.50;;
64795;SDS011;51229;51.980;6.722;2022-12-20T04:55:37;6.35;;;3.63;;
64795;SDS011;51229;51.980;6.722;2022-12-20T04:58:04;5.93;;;3.22;;
64795;SDS011;51229;51.980;6.722;2022-12-20T05:00:31;5.90;;;3.35;;
64795;SDS011;51229;51.980;6.722;2022-12-20T05:03:04;5.63;;;3.45;;
64795;SDS011;51229;51.980;6.722;2022-12-20T05:05:30;5.57;;;3.63;;
64795;SDS011;51229;51.980;6.722;2022-12-20T05:07:56;4.45;;;2.80;;
64795;SDS011;51229;51.980;6.722;2022-12-20T05:10:23;8.63;;;3.70;;
64795;SDS011;51229;51.980;6.722;2022-12-20T05:12:50;5.40;;;3.28;;
64795;SDS011;51229;51.980;6.722;2022-12-20T05:15:28;8.13;;;3.65;;
64795;SDS011;51229;51.980;6.722;2022-12-20T05:17:54;5.70;;;3.55;;
64795;SDS011;51229;51.980;6.722;2022-12-20T05:20:26;6.60;;;3.60;;
64795;SDS011;51229;51.980;6.722;2022-12-20T05:22:56;8.05;;;3.70;;
64795;SDS011;51229;51.980;6.722;2022-12-20T05:25:52;8.65;;;3.95;;
64795;SDS011;51229;51.980;6.722;2022-12-20T05:29:03;6.18;;;3.25;;
64795;SDS011;51229;51.980;6.722;2022-12-20T05:31:43;7.85;;;3.72;;
64795;SDS011;51229;51.980;6.722;2022-12-20T05:34:09;6.60;;;4.20;;
64795;SDS011;51229;51.980;6.722;2022-12-20T05:36:41;6.05;;;3.67;;
64795;SDS011;51229;51.980;6.722;2022-12-20T05:39:07;5.93;;;3.40;;
64795;SDS011;51229;51.980;6.722;2022-12-20T05:41:45;6.13;;;3.30;;
64795;SDS011;51229;51.980;6.722;2022-12-20T05:44:21;6.95;;;3.90;;
64795;SDS011;51229;51.980;6.722;2022-12-20T05:46:49;7.13;;;3.90;;
64795;SDS011;51229;51.980;6.722;2022-12-20T05:49:42;8.95;;;4.10;;
64795;SDS011;51229;51.980;6.722;2022-12-20T05:52:34;6.60;;;3.90;;
64795;SDS011;51229;51.980;6.722;2022-12-20T05:55:06;6.82;;;3.15;;
64795;SDS011;51229;51.980;6.722;2022-12-20T05:57:33;6.72;;;3.95;;
64795;SDS011;51229;51.980;6.722;2022-12-20T05:59:59;7.75;;;3.72;;
64795;SDS011;51229;51.980;6.722;2022-12-20T06:02:25;6.78;;;3.75;;
64795;SDS011;51229;51.980;6.722;2022-12-20T06:04:58;7.03;;;3.78;;
64795;SDS011;51229;51.980;6.722;2022-12-20T06:07:24;7.70;;;3.70;;
64795;SDS011;51229;51.980;6.722;2022-12-20T06:12:34;8.57;;;3.88;;
64795;SDS011;51229;51.980;6.722;2022-12-20T06:15:00;8.75;;;3.88;;
64795;SDS011;51229;51.980;6.722;2022-12-20T06:17:27;8.65;;;4.47;;
64795;SDS011;51229;51.980;6.722;2022-12-20T06:19:53;7.43;;;3.80;;
64795;SDS011;51229;51.980;6.722;2022-12-20T06:22:20;6.15;;;3.72;;
64795;SDS011;51229;51.980;6.722;2022-12-20T06:27:24;6.25;;;3.67;;
64795;SDS011;51229;51.980;6.722;2022-12-20T06:30:13;6.10;;;3.80;;
64795;SDS011;51229;51.980;6.722;2022-12-20T06:32:51;7.75;;;4.28;;
64795;SDS011;51229;51.980;6.722;2022-12-20T06:35:16;5.53;;;3.78;;
64795;SDS011;51229;51.980;6.722;2022-12-20T06:37:42;6.30;;;3.67;;
64795;SDS011;51229;51.980;6.722;2022-12-20T06:40:10;7.88;;;4.20;;
64795;SDS011;51229;51.980;6.722;2022-12-20T06:42:37;8.45;;;4.75;;
64795;SDS011;51229;51.980;6.722;2022-12-20T06:45:05;6.93;;;4.50;;
64795;SDS011;51229;51.980;6.722;2022-12-20T06:47:31;9.18;;;4.32;;
64795;SDS011;51229;51.980;6.722;2022-12-20T06:50:00;7.43;;;4.80;;
64795;SDS011;51229;51.980;6.722;2022-12-20T06:52:26;8.38;;;4.68;;
64795;SDS011;51229;51.980;6.722;2022-12-20T06:54:53;6.63;;;4.40;;
64795;SDS011;51229;51.980;6.722;2022-12-20T06:57:20;7.85;;;5.13;;
64795;SDS011;51229;51.980;6.722;2022-12-20T06:59:47;10.45;;;5.35;;
64795;SDS011;51229;51.980;6.722;2022-12-20T07:02:13;8.85;;;5.28;;
64795;SDS011;51229;51.980;6.722;2022-12-20T07:04:41;13.57;;;6.40;;
64795;SDS011;51229;51.980;6.722;2022-12-20T07:07:07;11.88;;;4.60;;
64795;SDS011;51229;51.980;6.722;2022-12-20T07:09:33;9.70;;;5.65;;
64795;SDS011;51229;51.980;6.722;2022-12-20T07:11:58;10.43;;;5.43;;
64795;SDS011;51229;51.980;6.722;2022-12-20T07:14:24;10.75;;;5.10;;
64795;SDS011;51229;51.980;6.722;2022-12-20T07:16:50;10.25;;;5.75;;
64795;SDS011;51229;51.980;6.722;2022-12-20T07:19:16;8.25;;;4.55;;
64795;SDS011;51229;51.980;6.722;2022-12-20T07:21:42;8.55;;;5.07;;
64795;SDS011;51229;51.980;6.722;2022-12-20T07:24:08;9.07;;;5.28;;
64795;SDS011;51229;51.980;6.722;2022-12-20T07:26:34;8.55;;;4.97;;
64795;SDS011;51229;51.980;6.722;2022-12-20T07:29:00;9.50;;;5.00;;
64795;SDS011;51229;51.980;6.722;2022-12-20T07:31:26;8.45;;;4.65;;
64795;SDS011;51229;51.980;6.722;2022-12-20T07:33:52;9.23;;;4.65;;
64795;SDS011;51229;51.980;6.722;2022-12-20T07:36:17;10.30;;;4.88;;
64795;SDS011;51229;51.980;6.722;2022-12-20T07:38:43;9.65;;;5.03;;
64795;SDS011;51229;51.980;6.722;2022-12-20T07:41:10;10.15;;;5.32;;
64795;SDS011;51229;51.980;6.722;2022-12-20T07:43:37;9.82;;;5.00;;
64795;SDS011;51229;51.980;6.722;2022-12-20T07:46:04;8.02;;;4.93;;
64795;SDS011;51229;51.980;6.722;2022-12-20T07:48:30;9.95;;;5.38;;
64795;SDS011;51229;51.980;6.722;2022-12-20T07:50:58;7.03;;;4.78;;
64795;SDS011;51229;51.980;6.722;2022-12-20T07:53:27;8.15;;;4.78;;
64795;SDS011;51229;51.980;6.722;2022-12-20T07:55:58;7.32;;;4.90;;
64795;SDS011;51229;51.980;6.722;2022-12-20T07:58:25;7.15;;;4.10;;
64795;SDS011;51229;51.980;6.722;2022-12-20T08:00:52;9.02;;;4.10;;
64795;SDS011;51229;51.980;6.722;2022-12-20T08:03:20;9.63;;;4.05;;
64795;SDS011;51229;51.980;6.722;2022-12-20T08:05:53;7.05;;;4.00;;
64795;SDS011;51229;51.980;6.722;2022-12-20T08:08:22;10.48;;;4.30;;
64795;SDS011;51229;51.980;6.722;2022-12-20T08:10:48;10.88;;;4.40;;
64795;SDS011;51229;51.980;6.722;2022-12-20T08:13:15;7.70;;;4.05;;
64795;SDS011;51229;51.980;6.722;2022-12-20T08:15:41;9.10;;;4.05;;
64795;SDS011;51229;51.980;6.722;2022-12-20T08:18:07;9.70;;;4.72;;
64795;SDS011;51229;51.980;6.722;2022-12-20T08:20:33;6.75;;;3.53;;
64795;SDS011;51229;51.980;6.722;2022-12-20T08:22:59;7.88;;;3.38;;
64795;SDS011;51229;51.980;6.722;2022-12-20T08:25:27;9.48;;;3.85;;
64795;SDS011;51229;51.980;6.722;2022-12-20T08:27:53;6.50;;;3.08;;
64795;SDS011;51229;51.980;6.722;2022-12-20T08:30:19;6.47;;;3.60;;
64795;SDS011;51229;51.980;6.722;2022-12-20T08:32:45;6.90;;;3.63;;
64795;SDS011;51229;51.980;6.722;2022-12-20T08:35:10;8.88;;;3.95;;
64795;SDS011;51229;51.980;6.722;2022-12-20T08:37:37;6.78;;;3.83;;
64795;SDS011;51229;51.980;6.722;2022-12-20T08:40:03;7.68;;;4.03;;
64795;SDS011;51229;51.980;6.722;2022-12-20T08:42:29;6.03;;;3.50;;
64795;SDS011;51229;51.980;6.722;2022-12-20T08:44:55;7.13;;;3.35;;
64795;SDS011;51229;51.980;6.722;2022-12-20T08:47:21;6.07;;;3.20;;
64795;SDS011;51229;51.980;6.722;2022-12-20T08:49:46;9.43;;;4.25;;
64795;SDS011;51229;51.980;6.722;2022-12-20T08:52:12;7.70;;;3.45;;
64795;SDS011;51229;51.980;6.722;2022-12-20T08:54:38;6.40;;;3.28;;
64795;SDS011;51229;51.980;6.722;2022-12-20T08:57:04;4.55;;;2.42;;
64795;SDS011;51229;51.980;6.722;2022-12-20T08:59:29;7.32;;;3.17;;
64795;SDS011;51229;51.980;6.722;2022-12-20T09:01:55;8.23;;;3.40;;
64795;SDS011;51229;51.980;6.722;2022-12-20T09:04:21;6.43;;;3.17;;
64795;SDS011;51229;51.980;6.722;2022-12-20T09:06:47;5.93;;;2.90;;
64795;SDS011;51229;51.980;6.722;2022-12-20T09:09:12;7.32;;;3.08;;
64795;SDS011;51229;51.980;6.722;2022-12-20T09:11:38;4.60;;;2.45;;
64795;SDS011;51229;51.980;6.722;2022-12-20T09:14:04;4.80;;;2.70;;
64795;SDS011;51229;51.980;6.722;2022-12-20T09:16:31;4.60;;;2.25;;
64795;SDS011;51229;51.980;6.722;2022-12-20T09:18:57;4.78;;;2.50;;
64795;SDS011;51229;51.980;6.722;2022-12-20T09:21:25;6.60;;;2.78;;
64795;SDS011;51229;51.980;6.722;2022-12-20T09:23:51;6.68;;;3.42;;
64795;SDS011;51229;51.980;6.722;2022-12-20T09:26:18;5.25;;;2.55;;
64795;SDS011;51229;51.980;6.722;2022-12-20T09:28:45;4.35;;;2.67;;
64795;SDS011;51229;51.980;6.722;2022-12-20T09:31:19;4.50;;;2.65;;
64795;SDS011;51229;51.980;6.722;2022-12-20T09:33:46;5.95;;;3.00;;
64795;SDS011;51229;51.980;6.722;2022-12-20T09:36:16;4.93;;;2.65;;
64795;SDS011;51229;51.980;6.722;2022-12-20T09:38:44;5.70;;;3.10;;
64795;SDS011;51229;51.980;6.722;2022-12-20T09:43:45;4.65;;;2.53;;
64795;SDS011;51229;51.980;6.722;2022-12-20T09:46:12;7.47;;;3.25;;
64795;SDS011;51229;51.980;6.722;2022-12-20T09:48:39;6.15;;;2.97;;
64795;SDS011;51229;51.980;6.722;2022-12-20T09:56:23;4.78;;;3.30;;
64795;SDS011;51229;51.980;6.722;2022-12-20T10:01:42;8.82;;;4.35;;
64795;SDS011;51229;51.980;6.722;2022-12-20T10:04:30;7.57;;;3.40;;
64795;SDS011;51229;51.980;6.722;2022-12-20T10:15:29;5.72;;;3.53;;
64795;SDS011;51229;51.980;6.722;2022-12-20T10:20:57;6.80;;;3.45;;
64795;SDS011;51229;51.980;6.722;2022-12-20T10:26:27;7.35;;;3.47;;
64795;SDS011;51229;51.980;6.722;2022-12-20T10:28:54;6.65;;;3.47;;
64795;SDS011;51229;51.980;6.722;2022-12-20T10:31:20;7.03;;;3.08;;
64795;SDS011;51229;51.980;6.722;2022-12-20T10:33:46;5.32;;;3.50;;
64795;SDS011;51229;51.980;6.722;2022-12-20T10:38:56;7.97;;;4.20;;
64795;SDS011;51229;51.980;6.722;2022-12-20T10:41:27;9.15;;;3.55;;
64795;SDS011;51229;51.980;6.722;2022-12-20T10:44:25;9.18;;;3.78;;
64795;SDS011;51229;51.980;6.722;2022-12-20T10:46:54;6.72;;;4.00;;
64795;SDS011;51229;51.980;6.722;2022-12-20T10:49:36;6.50;;;4.00;;
64795;SDS011;51229;51.980;6.722;2022-12-20T10:54:35;6.70;;;3.63;;
64795;SDS011;51229;51.980;6.722;2022-12-20T10:59:53;7.32;;;4.25;;
64795;SDS011;51229;51.980;6.722;2022-12-20T11:02:26;5.80;;;3.83;;
64795;SDS011;51229;51.980;6.722;2022-12-20T11:05:01;6.40;;;3.90;;
64795;SDS011;51229;51.980;6.722;2022-12-20T11:07:37;7.38;;;3.28;;
64795;SDS011;51229;51.980;6.722;2022-12-20T11:10:17;9.05;;;3.53;;
64795;SDS011;51229;51.980;6.722;2022-12-20T11:12:52;6.65;;;3.05;;
64795;SDS011;51229;51.980;6.722;2022-12-20T11:15:26;8.07;;;3.67;;
64795;SDS011;51229;51.980;6.722;2022-12-20T11:20:50;7.03;;;3.17;;
64795;SDS011;51229;51.980;6.722;2022-12-20T11:23:33;8.95;;;3.83;;
64795;SDS011;51229;51.980;6.722;2022-12-20T11:31:55;5.57;;;3.30;;
64795;SDS011;51229;51.980;6.722;2022-12-20T11:34:38;6.75;;;4.00;;
64795;SDS011;51229;51.980;6.722;2022-12-20T11:39:59;6.68;;;3.35;;
64795;SDS011;51229;51.980;6.722;2022-12-20T11:42:59;5.95;;;3.20;;
64795;SDS011;51229;51.980;6.722;2022-12-20T11:45:58;8.15;;;3.92;;
64795;SDS011;51229;51.980;6.722;2022-12-20T11:51:45;11.02;;;4.35;;
64795;SDS011;51229;51.980;6.722;2022-12-20T11:57:27;8.73;;;3.40;;
64795;SDS011;51229;51.980;6.722;2022-12-20T12:00:00;7.45;;;3.55;;
64795;SDS011;51229;51.980;6.722;2022-12-20T12:05:42;9.25;;;4.28;;
64795;SDS011;51229;51.980;6.722;2022-12-20T12:08:21;7.45;;;3.58;;
64795;SDS011;51229;51.980;6.722;2022-12-20T12:10:59;8.05;;;4.00;;
64795;SDS011;51229;51.980;6.722;2022-12-20T12:13:30;7.18;;;4.28;;
64795;SDS011;51229;51.980;6.722;2022-12-20T12:16:05;6.57;;;4.13;;
64795;SDS011;51229;51.980;6.722;2022-12-20T12:18:35;10.50;;;4.40;;
64795;SDS011;51229;51.980;6.722;2022-12-20T12:26:21;8.43;;;4.97;;
64795;SDS011;51229;51.980;6.722;2022-12-20T12:28:52;6.55;;;4.60;;
64795;SDS011;51229;51.980;6.722;2022-12-20T12:31:36;7.88;;;4.20;;
64795;SDS011;51229;51.980;6.722;2022-12-20T12:45:02;9.02;;;4.78;;
64795;SDS011;51229;51.980;6.722;2022-12-20T12:47:43;6.78;;;4.03;;
64795;SDS011;51229;51.980;6.722;2022-12-20T12:50:37;7.80;;;4.80;;
64795;SDS011;51229;51.980;6.722;2022-12-20T12:53:12;8.27;;;4.57;;
64795;SDS011;51229;51.980;6.722;2022-12-20T12:55:49;9.30;;;4.70;;
64795;SDS011;51229;51.980;6.722;2022-12-20T13:03:35;8.55;;;5.13;;
64795;SDS011;51229;51.980;6.722;2022-12-20T13:09:09;9.05;;;4.90;;
64795;SDS011;51229;51.980;6.722;2022-12-20T13:11:36;10.55;;;5.55;;
64795;SDS011;51229;51.980;6.722;2022-12-20T13:14:10;11.07;;;5.88;;
64795;SDS011;51229;51.980;6.722;2022-12-20T13:16:53;8.73;;;5.05;;
64795;SDS011;51229;51.980;6.722;2022-12-20T13:19:39;9.23;;;5.82;;
64795;SDS011;51229;51.980;6.722;2022-12-20T13:24:54;9.93;;;6.03;;
64795;SDS011;51229;51.980;6.722;2022-12-20T13:27:28;10.05;;;5.13;;
64795;SDS011;51229;51.980;6.722;2022-12-20T13:38:00;10.73;;;4.93;;
64795;SDS011;51229;51.980;6.722;2022-12-20T13:45:50;7.78;;;4.72;;
64795;SDS011;51229;51.980;6.722;2022-12-20T13:48:54;10.57;;;5.00;;
64795;SDS011;51229;51.980;6.722;2022-12-20T13:51:24;9.02;;;5.43;;
64795;SDS011;51229;51.980;6.722;2022-12-20T13:57:04;12.07;;;5.18;;
64795;SDS011;51229;51.980;6.722;2022-12-20T13:59:14;9.57;;;5.47;;
64795;SDS011;51229;51.980;6.722;2022-12-20T14:01:49;9.20;;;5.38;;
64795;SDS011;51229;51.980;6.722;2022-12-20T14:04:16;9.95;;;5.85;;
64795;SDS011;51229;51.980;6.722;2022-12-20T14:06:43;8.20;;;5.20;;
64795;SDS011;51229;51.980;6.722;2022-12-20T14:09:31;10.95;;;5.35;;
64795;SDS011;51229;51.980;6.722;2022-12-20T14:12:03;12.45;;;5.55;;
64795;SDS011;51229;51.980;6.722;2022-12-20T14:14:37;12.43;;;6.18;;
64795;SDS011;51229;51.980;6.722;2022-12-20T14:17:14;12.07;;;6.07;;
64795;SDS011;51229;51.980;6.722;2022-12-20T14:19:43;10.38;;;6.28;;
64795;SDS011;51229;51.980;6.722;2022-12-20T14:22:09;11.30;;;5.47;;
64795;SDS011;51229;51.980;6.722;2022-12-20T14:24:38;10.55;;;6.45;;
64795;SDS011;51229;51.980;6.722;2022-12-20T14:27:08;10.73;;;5.63;;
64795;SDS011;51229;51.980;6.722;2022-12-20T14:29:37;13.23;;;5.82;;
64795;SDS011;51229;51.980;6.722;2022-12-20T14:32:04;9.20;;;5.57;;
64795;SDS011;51229;51.980;6.722;2022-12-20T14:34:31;8.48;;;5.65;;
64795;SDS011;51229;51.980;6.722;2022-12-20T14:39:53;11.05;;;5.47;;
64795;SDS011;51229;51.980;6.722;2022-12-20T14:42:28;12.30;;;6.28;;
64795;SDS011;51229;51.980;6.722;2022-12-20T14:47:33;11.80;;;5.88;;
64795;SDS011;51229;51.980;6.722;2022-12-20T14:50:03;9.35;;;4.95;;
64795;SDS011;51229;51.980;6.722;2022-12-20T14:55:04;11.35;;;5.95;;
64795;SDS011;51229;51.980;6.722;2022-12-20T15:03:01;7.65;;;4.93;;
64795;SDS011;51229;51.980;6.722;2022-12-20T15:05:45;9.35;;;5.40;;
64795;SDS011;51229;51.980;6.722;2022-12-20T15:10:52;10.27;;;5.30;;
64795;SDS011;51229;51.980;6.722;2022-12-20T15:13:19;8.40;;;4.75;;
64795;SDS011;51229;51.980;6.722;2022-12-20T15:15:47;9.57;;;5.00;;
64795;SDS011;51229;51.980;6.722;2022-12-20T15:18:13;10.98;;;5.53;;
64795;SDS011;51229;51.980;6.722;2022-12-20T15:20:41;8.15;;;4.95;;
64795;SDS011;51229;51.980;6.722;2022-12-20T15:23:18;9.63;;;5.40;;
64795;SDS011;51229;51.980;6.722;2022-12-20T15:25:45;11.65;;;5.57;;
64795;SDS011;51229;51.980;6.722;2022-12-20T15:28:19;10.70;;;5.60;;
64795;SDS011;51229;51.980;6.722;2022-12-20T15:30:57;9.93;;;5.60;;
64795;SDS011;51229;51.980;6.722;2022-12-20T15:33:24;11.50;;;6.57;;
64795;SDS011;51229;51.980;6.722;2022-12-20T15:35:51;10.40;;;6.05;;
64795;SDS011;51229;51.980;6.722;2022-12-20T15:38:19;9.70;;;5.55;;
64795;SDS011;51229;51.980;6.722;2022-12-20T15:40:49;9.85;;;5.45;;
64795;SDS011;51229;51.980;6.722;2022-12-20T15:43:18;9.43;;;5.95;;
64795;SDS011;51229;51.980;6.722;2022-12-20T15:45:47;9.70;;;5.65;;
64795;SDS011;51229;51.980;6.722;2022-12-20T15:48:16;10.65;;;5.80;;
64795;SDS011;51229;51.980;6.722;2022-12-20T15:51:05;11.02;;;5.95;;
64795;SDS011;51229;51.980;6.722;2022-12-20T15:53:46;10.13;;;6.43;;
64795;SDS011;51229;51.980;6.722;2022-12-20T15:56:25;11.80;;;6.63;;
64795;SDS011;51229;51.980;6.722;2022-12-20T15:58:59;11.48;;;5.97;;
64795;SDS011;51229;51.980;6.722;2022-12-20T16:01:34;11.50;;;6.57;;
64795;SDS011;51229;51.980;6.722;2022-12-20T16:04:02;9.00;;;5.20;;
64795;SDS011;51229;51.980;6.722;2022-12-20T16:06:28;9.98;;;6.03;;
64795;SDS011;51229;51.980;6.722;2022-12-20T16:08:54;8.70;;;5.80;;
64795;SDS011;51229;51.980;6.722;2022-12-20T16:11:23;11.93;;;6.25;;
64795;SDS011;51229;51.980;6.722;2022-12-20T16:13:52;12.68;;;6.68;;
64795;SDS011;51229;51.980;6.722;2022-12-20T16:16:20;9.93;;;6.00;;
64795;SDS011;51229;51.980;6.722;2022-12-20T16:18:49;8.80;;;6.22;;
64795;SDS011;51229;51.980;6.722;2022-12-20T16:21:24;12.32;;;6.95;;
64795;SDS011;51229;51.980;6.722;2022-12-20T16:24:01;17.80;;;8.23;;
64795;SDS011;51229;51.980;6.722;2022-12-20T16:26:27;14.68;;;7.13;;
64795;SDS011;51229;51.980;6.722;2022-12-20T16:28:54;13.95;;;6.13;;
64795;SDS011;51229;51.980;6.722;2022-12-20T16:31:24;11.52;;;7.03;;
64795;SDS011;51229;51.980;6.722;2022-12-20T16:33:53;10.77;;;6.90;;
64795;SDS011;51229;51.980;6.722;2022-12-20T16:36:20;12.40;;;7.55;;
64795;SDS011;51229;51.980;6.722;2022-12-20T16:38:46;11.30;;;7.25;;
64795;SDS011;51229;51.980;6.722;2022-12-20T16:41:17;11.40;;;6.82;;
64795;SDS011;51229;51.980;6.722;2022-12-20T16:43:44;9.80;;;5.72;;
64795;SDS011;51229;51.980;6.722;2022-12-20T16:46:12;12.20;;;5.97;;
64795;SDS011;51229;51.980;6.722;2022-12-20T16:48:43;13.48;;;7.10;;
64795;SDS011;51229;51.980;6.722;2022-12-20T16:56:30;12.43;;;7.40;;
64795;SDS011;51229;51.980;6.722;2022-12-20T16:58:56;14.10;;;7.57;;
64795;SDS011;51229;51.980;6.722;2022-12-20T17:01:23;14.10;;;7.50;;
64795;SDS011;51229;51.980;6.722;2022-12-20T17:03:52;12.45;;;7.03;;
64795;SDS011;51229;51.980;6.722;2022-12-20T17:06:19;16.02;;;8.43;;
64795;SDS011;51229;51.980;6.722;2022-12-20T17:08:45;14.23;;;7.35;;
64795;SDS011;51229;51.980;6.722;2022-12-20T17:13:42;13.45;;;7.50;;
64795;SDS011;51229;51.980;6.722;2022-12-20T17:16:12;10.02;;;6.15;;
64795;SDS011;51229;51.980;6.722;2022-12-20T17:18:39;14.18;;;8.32;;
64795;SDS011;51229;51.980;6.722;2022-12-20T17:23:54;15.48;;;9.30;;
64795;SDS011;51229;51.980;6.722;2022-12-20T17:26:21;17.73;;;9.98;;
64795;SDS011;51229;51.980;6.722;2022-12-20T17:28:49;12.57;;;8.02;;
64795;SDS011;51229;51.980;6.722;2022-12-20T17:31:16;13.32;;;8.10;;